createdAt,value
2022-09-24T00:01:30.092Z,100560.09
2022-09-24T00:04:02.465Z,100557.47
2022-09-24T00:06:31.192Z,100555.66
2022-09-24T00:08:58.294Z,100556.59
2022-09-24T00:11:26.820Z,100543.47
2022-09-24T00:13:54.833Z,100542.53
2022-09-24T00:16:23.985Z,100544.31
2022-09-24T00:18:50.828Z,100539.94
2022-09-24T00:21:20.419Z,100549.59
2022-09-24T00:23:52.083Z,100555.72
2022-09-24T00:26:38.639Z,100557.44
2022-09-24T00:29:06.352Z,100559.22
2022-09-24T00:31:33.247Z,100554.84
2022-09-24T00:34:01.189Z,100552.22
2022-09-24T00:36:28.409Z,100550.47
2022-09-24T00:38:58.050Z,100554.84
2022-09-24T00:41:30.724Z,100551.34
2022-09-24T00:43:58.081Z,100548.72
2022-09-24T00:46:43.078Z,100550.44
2022-09-24T00:49:16.563Z,100555.72
2022-09-24T00:51:47.121Z,100549.59
2022-09-24T00:54:19.749Z,100543.44
2022-09-24T00:56:49.198Z,100536.47
2022-09-24T00:59:18.531Z,100538.19
2022-09-24T01:01:49.635Z,100532.06
2022-09-24T01:04:21.357Z,100535.59
2022-09-24T01:06:52.349Z,100532.97
2022-09-24T01:09:21.717Z,100527.75
2022-09-24T01:12:00.667Z,100526.00
2022-09-24T01:14:42.586Z,100533.84
2022-09-24T01:17:21.535Z,100519.88
2022-09-24T01:20:09.922Z,100520.75
2022-09-24T01:22:57.607Z,100517.25
2022-09-24T01:25:43.943Z,100519.00
2022-09-24T01:28:13.667Z,100518.13
2022-09-24T01:30:42.710Z,100508.50
2022-09-24T01:33:15.167Z,100505.00
2022-09-24T01:35:44.857Z,100504.97
2022-09-24T01:38:22.695Z,100508.50
2022-09-24T01:40:52.081Z,100508.50
2022-09-24T01:43:22.985Z,100509.38
2022-09-24T01:45:49.993Z,100515.47
2022-09-24T01:48:21.305Z,100512.84
2022-09-24T01:51:03.387Z,100510.25
2022-09-24T01:53:35.949Z,100506.75
2022-09-24T01:56:08.350Z,100510.25
2022-09-24T01:58:50.181Z,100517.25
2022-09-24T02:01:27.873Z,100506.75
2022-09-24T02:04:06.432Z,100505.88
2022-09-24T02:06:44.407Z,100495.41
2022-09-24T02:09:40.204Z,100500.66
2022-09-24T02:12:23.061Z,100499.78
2022-09-24T02:15:01.399Z,100492.75
2022-09-24T02:17:33.588Z,100491.91
2022-09-24T02:20:02.860Z,100492.75
2022-09-24T02:22:31.284Z,100487.50
2022-09-24T02:25:00.127Z,100478.78
2022-09-24T02:27:30.636Z,100487.53
2022-09-24T02:29:59.297Z,100477.00
2022-09-24T02:32:30.014Z,100475.28
2022-09-24T02:35:02.099Z,100465.62
2022-09-24T02:37:29.870Z,100469.16
2022-09-24T02:39:56.614Z,100463.91
2022-09-24T02:42:23.578Z,100458.63
2022-09-24T02:44:50.407Z,100456.84
2022-09-24T02:47:17.108Z,100449.06
2022-09-24T02:49:43.774Z,100451.66
2022-09-24T02:52:10.569Z,100455.16
2022-09-24T02:54:38.062Z,100447.31
2022-09-24T02:57:04.892Z,100449.91
2022-09-24T02:59:31.766Z,100446.44
2022-09-24T03:01:58.600Z,100454.28
2022-09-24T03:04:25.537Z,100448.13
2022-09-24T03:06:52.463Z,100449.88
2022-09-24T03:09:19.181Z,100447.28
2022-09-24T03:11:46.617Z,100442.94
2022-09-24T03:14:13.659Z,100442.94
2022-09-24T03:16:40.515Z,100435.09
2022-09-24T03:19:07.877Z,100442.94
2022-09-24T03:21:34.672Z,100435.94
2022-09-24T03:24:01.642Z,100434.19
2022-09-24T03:26:28.496Z,100433.25
2022-09-24T03:28:55.214Z,100430.69
2022-09-24T03:31:24.408Z,100423.66
2022-09-24T03:33:52.003Z,100428.06
2022-09-24T03:36:24.525Z,100442.06
2022-09-24T03:38:56.532Z,100432.47
2022-09-24T03:41:27.804Z,100435.03
2022-09-24T03:43:55.413Z,100438.53
2022-09-24T03:46:24.478Z,100434.19
2022-09-24T03:48:51.213Z,100437.69
2022-09-24T03:51:19.711Z,100434.19
2022-09-24T03:53:46.998Z,100437.69
2022-09-24T03:56:13.825Z,100436.81
2022-09-24T03:58:42.054Z,100441.16
2022-09-24T04:01:10.810Z,100441.19
2022-09-24T04:03:37.869Z,100443.78
2022-09-24T04:06:05.546Z,100420.16
2022-09-24T04:08:33.093Z,100425.44
2022-09-24T04:11:00.134Z,100429.78
2022-09-24T04:13:26.909Z,100422.78
2022-09-24T04:15:55.183Z,100423.69
2022-09-24T04:18:22.805Z,100421.91
2022-09-24T04:20:49.783Z,100418.31
2022-09-24T04:23:16.717Z,100416.63
2022-09-24T04:25:44.211Z,100411.44
2022-09-24T04:28:12.133Z,100407.06
2022-09-24T04:30:39.430Z,100401.75
2022-09-24T04:33:07.510Z,100409.69
2022-09-24T04:35:36.303Z,100398.34
2022-09-24T04:38:04.914Z,100395.69
2022-09-24T04:40:32.455Z,100397.44
2022-09-24T04:42:59.704Z,100400.03
2022-09-24T04:45:26.995Z,100403.53
2022-09-24T04:47:57.618Z,100397.41
2022-09-24T04:50:27.447Z,100402.59
2022-09-24T04:52:55.110Z,100410.47
2022-09-24T04:55:22.707Z,100405.25
2022-09-24T04:57:51.286Z,100406.09
2022-09-24T05:00:21.117Z,100404.44
2022-09-24T05:02:55.257Z,100403.59
2022-09-24T05:05:22.092Z,100400.97
2022-09-24T05:07:49.629Z,100395.75
2022-09-24T05:10:16.425Z,100392.97
2022-09-24T05:12:43.157Z,100390.91
2022-09-24T05:15:10.426Z,100388.72
2022-09-24T05:17:40.731Z,100386.06
2022-09-24T05:20:11.449Z,100396.94
2022-09-24T05:22:46.302Z,100391.78
2022-09-24T05:25:15.168Z,100393.72
2022-09-24T05:27:50.261Z,100397.56
2022-09-24T05:30:18.945Z,100390.75
2022-09-24T05:32:47.360Z,100393.94
2022-09-24T05:35:14.059Z,100389.31
2022-09-24T05:37:41.269Z,100389.50
2022-09-24T05:40:27.149Z,100387.97
2022-09-24T05:43:00.994Z,100387.22
2022-09-24T05:45:31.721Z,100388.81
2022-09-24T05:48:00.241Z,100388.00
2022-09-24T05:50:27.635Z,100385.28
2022-09-24T05:52:54.554Z,100396.16
2022-09-24T05:55:21.252Z,100395.47
2022-09-24T05:57:49.130Z,100390.84
2022-09-24T06:00:16.018Z,100387.25
2022-09-24T06:02:42.782Z,100388.16
2022-09-24T06:05:10.308Z,100383.22
2022-09-24T06:07:37.141Z,100388.94
2022-09-24T06:10:05.492Z,100394.03
2022-09-24T06:12:35.088Z,100392.19
2022-09-24T06:15:02.946Z,100402.59
2022-09-24T06:17:30.006Z,100401.31
2022-09-24T06:19:58.134Z,100400.97
2022-09-24T06:22:28.336Z,100401.84
2022-09-24T06:24:55.724Z,100405.88
2022-09-24T06:27:22.454Z,100410.91
2022-09-24T06:29:49.270Z,100406.13
2022-09-24T06:32:16.134Z,100405.75
2022-09-24T06:34:43.092Z,100412.03
2022-09-24T06:37:09.972Z,100418.62
2022-09-24T06:39:36.660Z,100410.53
2022-09-24T06:42:03.387Z,100419.87
2022-09-24T06:44:31.813Z,100425.34
2022-09-24T06:46:58.656Z,100425.53
2022-09-24T06:49:29.012Z,100435.22
2022-09-24T06:51:58.984Z,100436.34
2022-09-24T06:54:25.887Z,100423.47
2022-09-24T06:56:52.845Z,100429.63
2022-09-24T06:59:19.775Z,100430.25
2022-09-24T07:01:46.464Z,100428.22
2022-09-24T07:04:13.388Z,100424.38
2022-09-24T07:06:58.867Z,100425.34
2022-09-24T07:09:25.563Z,100422.12
2022-09-24T07:11:53.162Z,100422.50
2022-09-24T07:14:20.212Z,100424.19
2022-09-24T07:16:47.837Z,100433.34
2022-09-24T07:19:14.520Z,100436.06
2022-09-24T07:21:41.213Z,100431.56
2022-09-24T07:24:07.975Z,100428.28
2022-09-24T07:26:34.748Z,100414.84
2022-09-24T07:29:02.288Z,100427.37
2022-09-24T07:31:30.073Z,100433.41
2022-09-24T07:33:56.870Z,100428.53
2022-09-24T07:36:23.724Z,100432.00
2022-09-24T07:38:50.467Z,100425.16
2022-09-24T07:41:18.324Z,100427.97
2022-09-24T07:43:45.056Z,100429.87
2022-09-24T07:46:11.779Z,100422.41
2022-09-24T07:48:38.510Z,100416.47
2022-09-24T07:51:06.521Z,100409.66
2022-09-24T07:53:33.740Z,100409.13
2022-09-24T07:56:00.777Z,100404.16
2022-09-24T07:58:27.600Z,100409.19
2022-09-24T08:00:57.942Z,100403.81
2022-09-24T08:03:24.745Z,100423.84
2022-09-24T08:05:52.255Z,100413.19
2022-09-24T08:08:20.978Z,100407.16
2022-09-24T08:10:47.695Z,100405.97
2022-09-24T08:13:14.888Z,100410.97
2022-09-24T08:15:41.973Z,100409.09
2022-09-24T08:18:08.765Z,100394.41
2022-09-24T08:20:38.042Z,100383.16
2022-09-24T08:23:07.774Z,100388.72
2022-09-24T08:25:34.340Z,100388.75
2022-09-24T08:28:08.849Z,100392.50
2022-09-24T08:30:36.173Z,100380.09
2022-09-24T08:33:06.900Z,100380.69
2022-09-24T08:35:37.142Z,100375.78
2022-09-24T08:38:04.008Z,100379.87
2022-09-24T08:40:36.487Z,100380.88
2022-09-24T08:43:21.770Z,100385.03
2022-09-24T08:46:14.261Z,100390.19
2022-09-24T08:48:46.454Z,100389.31
2022-09-24T08:51:18.285Z,100389.34
2022-09-24T08:53:57.771Z,100373.72
2022-09-24T08:56:35.380Z,100365.75
2022-09-24T08:59:02.339Z,100369.09
2022-09-24T09:01:35.213Z,100373.00
2022-09-24T09:04:26.101Z,100378.75
2022-09-24T09:07:02.250Z,100369.78
2022-09-24T09:09:46.420Z,100370.38
2022-09-24T09:12:23.604Z,100361.16
2022-09-24T09:15:06.134Z,100360.41
2022-09-24T09:17:42.493Z,100357.25
2022-09-24T09:20:40.786Z,100356.47
2022-09-24T09:23:16.987Z,100354.16
2022-09-24T09:25:57.961Z,100358.66
2022-09-24T09:28:26.886Z,100352.41
2022-09-24T09:30:56.931Z,100355.09
2022-09-24T09:34:09.364Z,100353.78
2022-09-24T09:37:03.253Z,100353.44
2022-09-24T09:39:55.017Z,100363.50
2022-09-24T09:42:42.945Z,100357.47
2022-09-24T09:45:25.481Z,100349.28
2022-09-24T09:47:57.639Z,100343.88
2022-09-24T09:50:42.941Z,100333.06
2022-09-24T09:53:31.621Z,100336.59
2022-09-24T09:56:04.812Z,100327.72
2022-09-24T09:58:33.952Z,100334.22
2022-09-24T10:01:08.016Z,100330.34
2022-09-24T10:03:52.283Z,100323.06
2022-09-24T10:06:28.033Z,100324.47
2022-09-24T10:09:05.954Z,100320.91
2022-09-24T10:11:32.970Z,100319.66
2022-09-24T10:14:04.707Z,100322.41
2022-09-24T10:16:38.181Z,100326.81
2022-09-24T10:19:16.447Z,100300.03
2022-09-24T10:21:43.347Z,100304.25
2022-09-24T10:24:23.724Z,100306.69
2022-09-24T10:26:50.915Z,100294.44
2022-09-24T10:29:40.492Z,100294.03
2022-09-24T10:32:16.152Z,100296.16
2022-09-24T10:34:43.057Z,100284.59
2022-09-24T10:37:19.117Z,100283.19
2022-09-24T10:39:45.859Z,100295.25
2022-09-24T10:42:27.307Z,100273.59
2022-09-24T10:44:55.748Z,100274.81
2022-09-24T10:47:53.224Z,100273.16
2022-09-24T10:50:20.090Z,100280.53
2022-09-24T10:53:39.650Z,100270.34
2022-09-24T10:56:22.966Z,100278.59
2022-09-24T10:59:14.018Z,100274.22
2022-09-24T11:01:52.331Z,100274.13
2022-09-24T11:04:41.041Z,100282.22
2022-09-24T11:07:42.030Z,100281.13
2022-09-24T11:10:30.945Z,100265.16
2022-09-24T11:13:07.476Z,100269.47
2022-09-24T11:16:04.633Z,100265.69
2022-09-24T11:18:32.181Z,100259.78
2022-09-24T11:21:31.501Z,100252.03
2022-09-24T11:24:19.906Z,100255.81
2022-09-24T11:27:08.200Z,100260.53
2022-09-24T11:29:48.682Z,100258.59
2022-09-24T11:32:24.130Z,100262.91
2022-09-24T11:34:51.659Z,100253.34
2022-09-24T11:37:46.282Z,100252.12
2022-09-24T11:40:31.652Z,100255.97
2022-09-24T11:43:26.603Z,100249.56
2022-09-24T11:46:33.379Z,100243.94
2022-09-24T11:49:57.201Z,100241.13
2022-09-24T11:52:43.795Z,100240.31
2022-09-24T11:55:14.789Z,100228.13
2022-09-24T11:58:04.532Z,100225.97
2022-09-24T12:00:40.703Z,100217.28
2022-09-24T12:03:25.198Z,100217.66
2022-09-24T12:06:21.994Z,100210.88
2022-09-24T12:08:56.179Z,100214.69
2022-09-24T12:11:34.193Z,100210.09
2022-09-24T12:14:13.300Z,100210.28
2022-09-24T12:16:44.492Z,100209.16
2022-09-24T12:19:14.215Z,100208.31
2022-09-24T12:21:43.602Z,100209.09
2022-09-24T12:24:19.359Z,100211.25
2022-09-24T12:26:47.952Z,100198.44
2022-09-24T12:29:59.619Z,100200.75
2022-09-24T12:32:54.976Z,100197.84
2022-09-24T12:35:58.254Z,100201.22
2022-09-24T12:38:42.723Z,100201.59
2022-09-24T12:41:21.348Z,100201.50
2022-09-24T12:43:54.572Z,100199.31
2022-09-24T12:46:47.348Z,100198.03
2022-09-24T12:49:35.963Z,100193.69
2022-09-24T12:52:32.515Z,100180.88
2022-09-24T12:55:02.422Z,100185.72
2022-09-24T12:57:49.375Z,100191.66
2022-09-24T13:00:36.519Z,100181.41
2022-09-24T13:03:05.793Z,100172.28
2022-09-24T13:05:46.440Z,100175.25
2022-09-24T13:08:22.998Z,100164.66
2022-09-24T13:11:00.983Z,100167.84
2022-09-24T13:13:31.941Z,100164.19
2022-09-24T13:16:06.428Z,100166.37
2022-09-24T13:18:36.991Z,100162.69
2022-09-24T13:21:09.097Z,100169.31
2022-09-24T13:23:35.708Z,100162.22
2022-09-24T13:26:06.421Z,100167.72
2022-09-24T13:28:48.661Z,100170.94
2022-09-24T13:31:35.405Z,100161.59
2022-09-24T13:34:13.024Z,100162.56
2022-09-24T13:36:46.372Z,100164.44
2022-09-24T13:39:42.583Z,100158.63
2022-09-24T13:42:25.388Z,100154.25
2022-09-24T13:44:58.433Z,100159.00
2022-09-24T13:47:28.781Z,100153.63
2022-09-24T13:50:25.794Z,100155.34
2022-09-24T13:53:18.696Z,100143.31
2022-09-24T13:55:46.923Z,100137.56
2022-09-24T13:58:29.685Z,100141.47
2022-09-24T14:00:59.975Z,100145.78
2022-09-24T14:03:37.412Z,100138.34
2022-09-24T14:06:12.675Z,100125.59
2022-09-24T14:08:47.198Z,100135.91
2022-09-24T14:11:16.024Z,100129.88
2022-09-24T14:13:46.176Z,100129.94
2022-09-24T14:16:21.230Z,100124.75
2022-09-24T14:18:48.939Z,100125.37
2022-09-24T14:21:27.926Z,100121.22
2022-09-24T14:23:54.606Z,100124.75
2022-09-24T14:26:30.135Z,100122.22
2022-09-24T14:29:00.165Z,100120.41
2022-09-24T14:31:28.110Z,100116.50
2022-09-24T14:33:55.254Z,100115.28
2022-09-24T14:36:28.248Z,100108.41
2022-09-24T14:39:04.457Z,100109.47
2022-09-24T14:41:36.491Z,100105.03
2022-09-24T14:44:08.125Z,100105.94
2022-09-24T14:46:46.017Z,100108.37
2022-09-24T14:49:42.214Z,100106.50
2022-09-24T14:52:25.268Z,100113.53
2022-09-24T14:55:12.512Z,100115.53
2022-09-24T14:57:43.353Z,100109.56
2022-09-24T15:00:19.232Z,100110.69
2022-09-24T15:02:51.173Z,100107.34
2022-09-24T15:05:23.271Z,100099.69
2022-09-24T15:07:50.129Z,100108.47
2022-09-24T15:10:23.037Z,100102.16
2022-09-24T15:12:50.862Z,100110.16
2022-09-24T15:15:17.506Z,100110.09
2022-09-24T15:17:47.320Z,100112.53
2022-09-24T15:20:14.960Z,100116.28
2022-09-24T15:22:41.731Z,100114.75
2022-09-24T15:25:08.986Z,100114.81
2022-09-24T15:27:40.512Z,100119.16
2022-09-24T15:30:11.356Z,100110.84
2022-09-24T15:32:38.897Z,100112.16
2022-09-24T15:35:09.747Z,100109.84
2022-09-24T15:37:39.946Z,100106.28
2022-09-24T15:40:14.286Z,100102.44
2022-09-24T15:42:41.077Z,100104.59
2022-09-24T15:45:21.726Z,100097.22
2022-09-24T15:47:50.209Z,100101.69
2022-09-24T15:50:18.073Z,100106.31
2022-09-24T15:52:50.551Z,100110.09
2022-09-24T15:55:20.151Z,100106.91
2022-09-24T15:57:47.147Z,100111.22
2022-09-24T16:00:18.947Z,100111.87
2022-09-24T16:02:52.364Z,100114.75
2022-09-24T16:05:19.779Z,100110.97
2022-09-24T16:07:46.969Z,100111.13
2022-09-24T16:10:15.754Z,100104.00
2022-09-24T16:12:43.289Z,100104.81
2022-09-24T16:15:14.858Z,100108.25
2022-09-24T16:17:42.302Z,100111.50
2022-09-24T16:20:12.317Z,100107.28
2022-09-24T16:22:39.167Z,100111.41
2022-09-24T16:25:07.239Z,100114.87
2022-09-24T16:27:35.444Z,100104.69
2022-09-24T16:30:02.854Z,100105.94
2022-09-24T16:32:29.605Z,100108.59
2022-09-24T16:34:57.094Z,100111.97
2022-09-24T16:37:25.318Z,100116.62
2022-09-24T16:39:55.465Z,100109.28
2022-09-24T16:42:22.305Z,100111.31
2022-09-24T16:44:49.009Z,100101.22
2022-09-24T16:47:17.836Z,100107.59
2022-09-24T16:49:44.683Z,100101.97
2022-09-24T16:52:11.643Z,100110.63
2022-09-24T16:54:38.416Z,100111.72
2022-09-24T16:57:06.402Z,100114.22
2022-09-24T16:59:33.456Z,100117.41
2022-09-24T17:02:00.378Z,100117.69
2022-09-24T17:04:27.793Z,100113.09
2022-09-24T17:06:58.536Z,100117.31
2022-09-24T17:09:44.034Z,100117.25
2022-09-24T17:12:11.170Z,100111.41
2022-09-24T17:14:38.641Z,100109.41
2022-09-24T17:17:05.953Z,100126.72
2022-09-24T17:19:32.785Z,100129.25
2022-09-24T17:22:00.889Z,100124.03
2022-09-24T17:24:27.865Z,100128.44
2022-09-24T17:26:55.243Z,100118.44
2022-09-24T17:29:27.571Z,100121.22
2022-09-24T17:31:57.339Z,100128.47
2022-09-24T17:34:24.281Z,100129.22
2022-09-24T17:36:51.115Z,100122.56
2022-09-24T17:39:18.770Z,100124.03
2022-09-24T17:41:45.769Z,100119.50
2022-09-24T17:44:13.228Z,100118.47
2022-09-24T17:46:40.581Z,100115.44
2022-09-24T17:49:07.561Z,100117.63
2022-09-24T17:51:36.616Z,100124.63
2022-09-24T17:54:08.511Z,100112.75
2022-09-24T17:56:39.091Z,100118.09
2022-09-24T17:59:08.978Z,100123.59
2022-09-24T18:01:38.332Z,100124.19
2022-09-24T18:04:07.188Z,100126.09
2022-09-24T18:06:37.347Z,100136.50
2022-09-24T18:09:05.549Z,100127.41
2022-09-24T18:11:38.515Z,100125.88
2022-09-24T18:14:05.618Z,100130.16
2022-09-24T18:16:33.711Z,100132.81
2022-09-24T18:19:02.295Z,100136.59
2022-09-24T18:21:30.164Z,100131.00
2022-09-24T18:23:58.997Z,100138.16
2022-09-24T18:26:32.924Z,100150.62
2022-09-24T18:29:02.513Z,100140.12
2022-09-24T18:31:29.865Z,100140.91
2022-09-24T18:34:05.284Z,100146.72
2022-09-24T18:36:34.935Z,100135.41
2022-09-24T18:39:02.429Z,100137.44
2022-09-24T18:41:30.968Z,100136.22
2022-09-24T18:44:01.636Z,100134.22
2022-09-24T18:46:30.925Z,100136.38
2022-09-24T18:49:01.716Z,100139.84
2022-09-24T18:51:32.026Z,100144.88
2022-09-24T18:54:03.489Z,100139.00
2022-09-24T18:56:31.506Z,100141.19
2022-09-24T18:59:02.084Z,100143.50
2022-09-24T19:01:32.150Z,100143.66
2022-09-24T19:04:00.670Z,100139.13
2022-09-24T19:06:28.441Z,100152.97
2022-09-24T19:08:55.518Z,100147.88
2022-09-24T19:11:22.994Z,100146.31
2022-09-24T19:13:51.992Z,100148.72
2022-09-24T19:16:20.321Z,100154.22
2022-09-24T19:18:47.569Z,100150.88
2022-09-24T19:21:15.751Z,100139.06
2022-09-24T19:23:46.529Z,100140.28
2022-09-24T19:26:16.371Z,100142.84
2022-09-24T19:28:44.150Z,100143.66
2022-09-24T19:31:22.187Z,100143.19
2022-09-24T19:33:50.463Z,100135.31
2022-09-24T19:36:17.687Z,100150.59
2022-09-24T19:38:44.978Z,100147.09
2022-09-24T19:41:25.450Z,100140.38
2022-09-24T19:43:53.947Z,100144.59
2022-09-24T19:46:24.405Z,100143.84
2022-09-24T19:48:52.327Z,100149.66
2022-09-24T19:51:23.611Z,100144.81
2022-09-24T19:53:53.563Z,100145.81
2022-09-24T19:56:22.732Z,100141.50
2022-09-24T19:58:52.848Z,100145.16
2022-09-24T20:01:21.655Z,100135.97
2022-09-24T20:03:49.255Z,100135.34
2022-09-24T20:06:19.008Z,100140.16
2022-09-24T20:08:49.275Z,100131.19
2022-09-24T20:11:19.500Z,100140.62
2022-09-24T20:13:47.171Z,100145.81
2022-09-24T20:16:16.550Z,100146.75
2022-09-24T20:18:43.786Z,100139.84
2022-09-24T20:21:12.849Z,100137.31
2022-09-24T20:23:40.958Z,100144.72
2022-09-24T20:26:26.276Z,100144.97
2022-09-24T20:28:53.188Z,100144.31
2022-09-24T20:31:21.169Z,100148.75
2022-09-24T20:33:49.031Z,100150.25
2022-09-24T20:36:20.756Z,100152.94
2022-09-24T20:38:50.091Z,100151.91
2022-09-24T20:41:25.012Z,100159.22
2022-09-24T20:43:55.309Z,100151.28
2022-09-24T20:46:24.841Z,100148.06
2022-09-24T20:48:52.646Z,100158.25
2022-09-24T20:51:21.387Z,100160.31
2022-09-24T20:53:49.607Z,100157.66
2022-09-24T20:56:18.277Z,100153.81
2022-09-24T20:58:45.516Z,100164.03
2022-09-24T21:01:12.707Z,100155.47
2022-09-24T21:03:44.851Z,100156.66
2022-09-24T21:06:13.204Z,100158.87
2022-09-24T21:08:42.753Z,100149.50
2022-09-24T21:11:16.268Z,100147.06
2022-09-24T21:13:45.830Z,100154.81
2022-09-24T21:16:12.984Z,100155.63
2022-09-24T21:18:42.815Z,100164.94
2022-09-24T21:21:12.467Z,100159.69
2022-09-24T21:23:40.152Z,100160.13
2022-09-24T21:26:10.910Z,100168.31
2022-09-24T21:28:37.890Z,100164.47
2022-09-24T21:31:05.840Z,100166.06
2022-09-24T21:33:33.805Z,100162.53
2022-09-24T21:36:05.799Z,100158.50
2022-09-24T21:38:32.874Z,100155.78
2022-09-24T21:41:01.456Z,100154.91
2022-09-24T21:43:33.824Z,100157.03
2022-09-24T21:46:06.753Z,100156.56
2022-09-24T21:48:34.429Z,100157.94
2022-09-24T21:51:06.323Z,100150.88
2022-09-24T21:53:34.442Z,100149.03
2022-09-24T21:56:02.641Z,100148.16
2022-09-24T21:58:30.061Z,100157.47
2022-09-24T22:01:04.276Z,100158.56
2022-09-24T22:03:32.194Z,100145.78
2022-09-24T22:06:03.451Z,100152.50
2022-09-24T22:08:32.039Z,100149.88
2022-09-24T22:11:05.156Z,100151.16
2022-09-24T22:13:32.440Z,100146.53
2022-09-24T22:16:00.338Z,100150.78
2022-09-24T22:18:28.176Z,100148.78
2022-09-24T22:20:56.410Z,100147.22
2022-09-24T22:23:23.809Z,100149.91
2022-09-24T22:25:55.944Z,100153.78
2022-09-24T22:28:24.649Z,100151.81
2022-09-24T22:30:56.300Z,100154.69
2022-09-24T22:33:42.674Z,100154.31
2022-09-24T22:36:09.688Z,100141.63
2022-09-24T22:38:37.233Z,100155.47
2022-09-24T22:41:05.914Z,100150.03
2022-09-24T22:43:33.210Z,100149.78
2022-09-24T22:46:01.138Z,100159.13
2022-09-24T22:48:28.199Z,100153.59
2022-09-24T22:50:55.022Z,100153.22
2022-09-24T22:53:22.405Z,100144.03
2022-09-24T22:55:52.670Z,100148.16
2022-09-24T22:58:19.473Z,100149.50
2022-09-24T23:00:46.345Z,100155.00
2022-09-24T23:03:13.079Z,100149.25
2022-09-24T23:05:39.795Z,100152.66
2022-09-24T23:08:06.580Z,100149.94
2022-09-24T23:10:33.827Z,100142.31
2022-09-24T23:13:00.573Z,100141.19
2022-09-24T23:15:27.341Z,100148.63
2022-09-24T23:17:55.085Z,100148.87
2022-09-24T23:20:22.790Z,100148.72
2022-09-24T23:22:49.803Z,100157.56
2022-09-24T23:25:16.704Z,100143.59
2022-09-24T23:27:43.420Z,100151.16
2022-09-24T23:30:10.738Z,100148.31
2022-09-24T23:32:37.438Z,100151.63
2022-09-24T23:35:04.431Z,100157.62
2022-09-24T23:37:31.317Z,100157.22
2022-09-24T23:39:58.320Z,100144.31
2022-09-24T23:42:25.044Z,100146.38
2022-09-24T23:44:51.790Z,100136.28
2022-09-24T23:47:18.710Z,100142.50
2022-09-24T23:49:45.371Z,100141.19
2022-09-24T23:52:12.164Z,100137.38
2022-09-24T23:54:40.336Z,100130.38
2022-09-24T23:57:07.616Z,100124.03
2022-09-24T23:59:34.722Z,100131.16
